Time;durP1;ratioP1;P1;durP2;ratioP2;P2;SDS_P1;SDS_P2;PMS_P1;PMS_P2;Temp;Humidity;BMP_temperature;BMP_pressure;BME280_temperature;BME280_humidity;BME280_pressure;Samples;Min_cycle;Max_cycle;Signal;HPM_P1;HPM_P2
2023/12/11 00:01:15;;;;;;;20.63;9.80;;;4.90;98.20;;;;;;5067192;28;20024;-64
2023/12/11 00:03:40;;;;;;;22.45;11.20;;;4.80;98.70;;;;;;5072695;28;20105;-64
2023/12/11 00:06:06;;;;;;;21.05;11.45;;;4.80;99.50;;;;;;5073656;28;20391;-62
2023/12/11 00:08:35;;;;;;;24.88;11.88;;;4.70;99.90;;;;;;5073732;28;20504;-63
2023/12/11 00:11:01;;;;;;;21.38;12.82;;;4.70;99.90;;;;;;5057616;28;20032;-63
2023/12/11 00:13:27;;;;;;;24.85;13.25;;;4.60;99.90;;;;;;5053458;28;20108;-63
2023/12/11 00:15:52;;;;;;;27.17;14.52;;;4.60;99.90;;;;;;5053482;28;20374;-63
2023/12/11 00:18:18;;;;;;;22.13;13.43;;;4.50;99.90;;;;;;5053013;28;20035;-63
2023/12/11 00:20:43;;;;;;;30.38;17.05;;;4.40;99.90;;;;;;5053794;28;20454;-64
2023/12/11 00:23:09;;;;;;;29.58;16.90;;;4.30;99.90;;;;;;5053003;28;20098;-63
2023/12/11 00:25:36;;;;;;;32.47;15.90;;;4.20;99.90;;;;;;5053391;28;20035;-62
2023/12/11 00:28:02;;;;;;;25.58;14.93;;;4.10;99.90;;;;;;5053661;28;20064;-63
2023/12/11 00:30:28;;;;;;;22.85;14.23;;;4.00;99.90;;;;;;5052908;28;20494;-63
2023/12/11 00:32:53;;;;;;;28.67;15.57;;;4.00;99.90;;;;;;5053847;28;20474;-63
2023/12/11 00:35:19;;;;;;;28.23;15.40;;;3.90;99.90;;;;;;5053022;28;20016;-63
2023/12/11 00:37:45;;;;;;;29.92;15.30;;;3.90;99.90;;;;;;5053347;28;20457;-63
2023/12/11 00:40:11;;;;;;;30.30;16.75;;;3.80;99.90;;;;;;5052872;28;20033;-64
2023/12/11 00:42:36;;;;;;;26.48;15.45;;;3.80;99.90;;;;;;5053022;28;20040;-63
2023/12/11 00:45:02;;;;;;;30.70;17.65;;;3.70;99.90;;;;;;5053463;28;20041;-63
2023/12/11 00:47:28;;;;;;;32.45;17.70;;;3.60;99.90;;;;;;5052714;28;20025;-63
2023/12/11 00:49:53;;;;;;;31.40;17.55;;;3.60;99.90;;;;;;5053497;28;20033;-64
2023/12/11 00:52:19;;;;;;;31.10;16.38;;;3.60;99.90;;;;;;5052791;28;20056;-63
2023/12/11 00:54:44;;;;;;;33.17;17.52;;;3.60;99.90;;;;;;5051310;28;20040;-61
2023/12/11 00:57:11;;;;;;;31.65;17.15;;;3.60;99.90;;;;;;5052965;28;20355;-63
2023/12/11 00:59:38;;;;;;;33.75;16.77;;;3.50;99.90;;;;;;5052731;28;20045;-63
2023/12/11 01:02:04;;;;;;;31.33;17.35;;;3.50;99.90;;;;;;5052775;28;20059;-62
2023/12/11 01:04:30;;;;;;;32.10;18.35;;;3.50;99.90;;;;;;5051798;28;20021;-62
2023/12/11 01:06:55;;;;;;;32.50;17.73;;;3.50;99.90;;;;;;5053064;28;20031;-63
2023/12/11 01:09:21;;;;;;;33.22;17.23;;;3.40;99.90;;;;;;5052605;28;20074;-63
2023/12/11 01:11:46;;;;;;;27.98;16.25;;;3.40;99.90;;;;;;5052674;28;20017;-64
2023/12/11 01:14:12;;;;;;;31.73;17.88;;;3.40;99.90;;;;;;5052639;28;20512;-67
2023/12/11 01:16:38;;;;;;;29.83;17.77;;;3.50;99.90;;;;;;5052828;28;20056;-63
2023/12/11 01:19:03;;;;;;;31.02;18.13;;;3.50;99.90;;;;;;5052559;28;20450;-63
2023/12/11 01:21:29;;;;;;;31.73;17.95;;;3.50;99.90;;;;;;5052087;28;20373;-63
2023/12/11 01:23:55;;;;;;;30.65;17.35;;;3.50;99.90;;;;;;5052231;28;20442;-64
2023/12/11 01:26:20;;;;;;;31.95;17.33;;;3.50;99.90;;;;;;5051856;28;20507;-63
2023/12/11 01:28:46;;;;;;;35.40;18.85;;;3.50;99.90;;;;;;5052060;28;20044;-63
2023/12/11 01:31:11;;;;;;;35.53;18.58;;;3.40;99.90;;;;;;5052451;28;20020;-62
2023/12/11 01:33:37;;;;;;;30.83;17.75;;;3.30;99.90;;;;;;5051842;28;20027;-62
2023/12/11 01:36:03;;;;;;;34.08;18.63;;;3.30;99.90;;;;;;5052771;28;20036;-63
2023/12/11 01:38:29;;;;;;;32.70;19.52;;;3.30;99.90;;;;;;5051915;28;20103;-64
2023/12/11 01:40:54;;;;;;;31.95;17.55;;;3.30;99.90;;;;;;5051741;28;20033;-63
2023/12/11 01:43:20;;;;;;;34.45;18.38;;;3.30;99.90;;;;;;5051892;28;20450;-62
2023/12/11 01:46:03;;;;;;;34.83;18.73;;;3.20;99.90;;;;;;5052296;28;20025;-63
2023/12/11 01:48:29;;;;;;;30.13;18.02;;;3.20;99.90;;;;;;5051791;28;20422;-62
2023/12/11 01:50:55;;;;;;;34.42;18.48;;;3.10;99.90;;;;;;5052427;28;20112;-63
2023/12/11 01:53:21;;;;;;;32.53;19.30;;;3.00;99.90;;;;;;5051675;28;20028;-62
2023/12/11 01:55:49;;;;;;;35.78;19.15;;;3.00;99.90;;;;;;5052003;28;20059;-63
2023/12/11 01:58:16;;;;;;;32.35;18.73;;;2.90;99.90;;;;;;5051900;28;20061;-64
2023/12/11 02:00:42;;;;;;;34.13;19.73;;;2.90;99.90;;;;;;5051786;28;20036;-63
2023/12/11 02:03:09;;;;;;;31.90;18.70;;;2.90;99.90;;;;;;5051808;28;20409;-63
2023/12/11 02:05:36;;;;;;;35.65;19.95;;;2.90;99.90;;;;;;5051573;28;20029;-63
2023/12/11 02:08:01;;;;;;;35.00;20.42;;;2.90;99.90;;;;;;5052087;28;20108;-63
2023/12/11 02:10:27;;;;;;;33.10;18.88;;;2.90;99.90;;;;;;5063631;28;20119;-64
2023/12/11 02:12:53;;;;;;;30.58;18.60;;;2.90;99.90;;;;;;5056715;28;20025;-62
2023/12/11 02:15:38;;;;;;;33.88;19.38;;;2.90;99.90;;;;;;5052589;28;20029;-63
2023/12/11 02:18:03;;;;;;;35.55;19.65;;;2.80;99.90;;;;;;5054865;28;20382;-63
2023/12/11 02:20:29;;;;;;;32.92;18.85;;;2.80;99.90;;;;;;5055773;28;20058;-63
2023/12/11 02:22:58;;;;;;;30.25;18.48;;;2.80;99.90;;;;;;5055831;28;20398;-62
2023/12/11 02:25:25;;;;;;;29.20;17.80;;;2.80;99.90;;;;;;5055440;28;20021;-63
2023/12/11 02:27:51;;;;;;;31.05;17.92;;;2.80;99.90;;;;;;5055901;28;20025;-64
2023/12/11 02:30:16;;;;;;;36.47;19.13;;;2.90;99.90;;;;;;5056013;28;20407;-63
2023/12/11 02:32:42;;;;;;;28.77;17.20;;;2.90;99.90;;;;;;5055414;28;20033;-64
2023/12/11 02:35:08;;;;;;;28.27;17.27;;;2.80;99.90;;;;;;5055700;28;20025;-63
2023/12/11 02:37:33;;;;;;;31.95;19.13;;;2.80;99.90;;;;;;5055257;28;20204;-63
2023/12/11 02:39:59;;;;;;;29.75;18.60;;;2.80;99.90;;;;;;5055578;28;20102;-63
2023/12/11 02:42:25;;;;;;;31.17;18.05;;;2.80;99.90;;;;;;5055468;28;20529;-64
2023/12/11 02:44:50;;;;;;;28.90;17.48;;;2.80;99.90;;;;;;5055507;28;20056;-63
2023/12/11 02:47:16;;;;;;;28.88;17.95;;;2.80;99.90;;;;;;5055874;28;20055;-62
2023/12/11 02:49:42;;;;;;;31.38;17.65;;;2.80;99.90;;;;;;5054699;28;20373;-63
2023/12/11 02:52:07;;;;;;;30.15;17.95;;;2.80;99.90;;;;;;5055410;28;20032;-63
2023/12/11 02:54:33;;;;;;;29.70;17.58;;;2.80;99.90;;;;;;5054940;28;20465;-63
2023/12/11 02:56:58;;;;;;;33.25;17.05;;;2.80;99.90;;;;;;5055628;28;20059;-63
2023/12/11 02:59:24;;;;;;;25.70;16.52;;;2.90;99.90;;;;;;5054466;28;20387;-63
2023/12/11 03:01:50;;;;;;;29.88;17.25;;;2.90;99.90;;;;;;5055238;28;20025;-62
2023/12/11 03:04:15;;;;;;;30.73;17.85;;;2.90;99.90;;;;;;5055277;28;20021;-63
2023/12/11 03:06:41;;;;;;;28.45;17.38;;;2.90;99.90;;;;;;5054829;28;20040;-63
2023/12/11 03:09:07;;;;;;;31.10;18.58;;;2.90;99.90;;;;;;5054854;28;20028;-63
2023/12/11 03:11:33;;;;;;;30.98;16.90;;;3.00;99.90;;;;;;5054671;28;20033;-64
2023/12/11 03:13:59;;;;;;;29.95;16.45;;;3.00;99.90;;;;;;5053922;28;20029;-63
2023/12/11 03:16:24;;;;;;;29.42;17.58;;;3.00;99.90;;;;;;5053139;28;20051;-63
2023/12/11 03:18:50;;;;;;;25.92;16.33;;;3.00;99.90;;;;;;5054823;28;20032;-63
2023/12/11 03:21:16;;;;;;;30.73;17.00;;;3.10;99.90;;;;;;5054557;28;20028;-63
2023/12/11 03:23:41;;;;;;;31.20;16.25;;;3.10;99.90;;;;;;5054489;28;20354;-63
2023/12/11 03:26:07;;;;;;;28.60;15.73;;;3.20;99.90;;;;;;5055127;28;20032;-63
2023/12/11 03:28:32;;;;;;;33.05;18.10;;;3.20;99.90;;;;;;5053513;28;20037;-62
2023/12/11 03:30:58;;;;;;;26.08;16.23;;;3.20;99.90;;;;;;5054734;28;20029;-62
2023/12/11 03:33:24;;;;;;;26.98;16.05;;;3.20;99.90;;;;;;5053940;28;20025;-62
2023/12/11 03:35:49;;;;;;;26.42;16.90;;;3.20;99.90;;;;;;5054810;28;20029;-63
2023/12/11 03:38:15;;;;;;;27.90;15.80;;;3.20;99.90;;;;;;5054949;28;20025;-63
2023/12/11 03:40:41;;;;;;;24.77;14.70;;;3.30;99.90;;;;;;5054059;28;20112;-63
2023/12/11 03:43:06;;;;;;;27.35;15.23;;;3.30;99.90;;;;;;5054466;28;20112;-63
2023/12/11 03:45:32;;;;;;;25.48;15.07;;;3.30;99.90;;;;;;5053988;28;20072;-63
2023/12/11 03:47:57;;;;;;;32.10;15.75;;;3.30;99.90;;;;;;5054231;28;20079;-64
2023/12/11 03:50:23;;;;;;;25.90;15.13;;;3.40;99.90;;;;;;5054586;28;20424;-62
2023/12/11 03:52:49;;;;;;;29.35;16.15;;;3.40;99.90;;;;;;5054022;28;20029;-63
2023/12/11 03:55:14;;;;;;;27.73;15.30;;;3.40;99.90;;;;;;5054518;28;20029;-62
2023/12/11 03:57:40;;;;;;;29.80;17.88;;;3.40;99.90;;;;;;5053468;28;20426;-63
2023/12/11 04:00:06;;;;;;;28.88;17.13;;;3.50;99.90;;;;;;5054133;28;20052;-62
2023/12/11 04:02:32;;;;;;;27.98;17.13;;;3.50;99.90;;;;;;5053508;28;20033;-63
2023/12/11 04:04:58;;;;;;;29.27;18.48;;;3.50;99.90;;;;;;5053984;28;20048;-63
2023/12/11 04:07:23;;;;;;;30.33;17.48;;;3.50;99.90;;;;;;5053441;28;20090;-63
2023/12/11 04:09:49;;;;;;;29.75;17.25;;;3.50;99.90;;;;;;5053528;28;20028;-63
2023/12/11 04:12:14;;;;;;;33.20;17.50;;;3.40;99.90;;;;;;5053937;28;20104;-63
2023/12/11 04:14:40;;;;;;;28.35;17.38;;;3.40;99.90;;;;;;5063823;28;20104;-63
2023/12/11 04:17:06;;;;;;;29.17;17.33;;;3.40;99.90;;;;;;5073774;28;20029;-63
2023/12/11 04:19:31;;;;;;;27.02;16.65;;;3.30;99.90;;;;;;5073297;28;20070;-62
2023/12/11 04:21:57;;;;;;;30.13;17.55;;;3.40;99.90;;;;;;5073589;28;20108;-63
2023/12/11 04:24:23;;;;;;;32.28;17.40;;;3.30;99.90;;;;;;5073612;28;20055;-63
2023/12/11 04:26:48;;;;;;;28.30;16.73;;;3.30;99.90;;;;;;5073452;28;20079;-63
2023/12/11 04:29:14;;;;;;;32.67;17.77;;;3.30;99.90;;;;;;5071910;28;20032;-63
2023/12/11 04:31:39;;;;;;;30.73;17.00;;;3.30;99.90;;;;;;5073181;28;20082;-63
2023/12/11 04:34:05;;;;;;;30.80;18.23;;;3.30;99.90;;;;;;5072116;28;20354;-63
2023/12/11 04:36:31;;;;;;;32.65;18.85;;;3.20;99.90;;;;;;5072742;28;20032;-63
2023/12/11 04:38:56;;;;;;;30.70;18.00;;;3.20;99.90;;;;;;5072402;28;20039;-63
2023/12/11 04:41:22;;;;;;;31.75;18.77;;;3.20;99.90;;;;;;5073383;28;20021;-63
2023/12/11 04:43:47;;;;;;;33.40;18.42;;;3.20;99.90;;;;;;5073135;28;20039;-63
2023/12/11 04:46:13;;;;;;;37.35;19.92;;;3.20;99.90;;;;;;5072990;28;20055;-64
2023/12/11 04:48:39;;;;;;;32.58;19.60;;;3.20;99.90;;;;;;5072496;28;20025;-63
2023/12/11 04:51:04;;;;;;;34.50;19.52;;;3.20;99.90;;;;;;5071613;28;20025;-63
2023/12/11 04:53:30;;;;;;;30.50;18.42;;;3.20;99.90;;;;;;5052267;28;20020;-63
2023/12/11 04:55:56;;;;;;;31.05;19.15;;;3.00;99.90;;;;;;5052745;28;20025;-63
2023/12/11 04:58:22;;;;;;;33.25;18.52;;;3.10;99.90;;;;;;5052629;28;20125;-63
2023/12/11 05:00:47;;;;;;;34.53;18.83;;;3.10;99.90;;;;;;5052342;28;20055;-64
2023/12/11 05:03:13;;;;;;;32.05;18.80;;;3.00;99.90;;;;;;5051471;28;20075;-64
2023/12/11 05:05:38;;;;;;;34.00;18.92;;;3.00;99.90;;;;;;5052457;28;20024;-64
2023/12/11 05:08:04;;;;;;;31.50;18.65;;;3.00;99.90;;;;;;5052672;28;20114;-63
2023/12/11 05:10:30;;;;;;;34.22;18.60;;;3.00;99.90;;;;;;5052173;28;20116;-66
2023/12/11 05:12:55;;;;;;;34.55;20.02;;;3.00;99.90;;;;;;5053049;28;20041;-62
2023/12/11 05:15:21;;;;;;;36.58;19.00;;;2.90;99.90;;;;;;5052638;28;20074;-67
2023/12/11 05:17:46;;;;;;;31.23;18.30;;;3.00;99.90;;;;;;5050919;28;20052;-63
2023/12/11 05:20:16;;;;;;;33.10;18.73;;;3.00;99.90;;;;;;5052433;28;20037;-63
2023/12/11 05:22:41;;;;;;;34.35;18.95;;;2.90;99.90;;;;;;5052041;28;20062;-63
2023/12/11 05:25:07;;;;;;;31.45;18.30;;;2.90;99.90;;;;;;5052674;28;20112;-63
2023/12/11 05:27:33;;;;;;;32.83;19.02;;;2.90;99.90;;;;;;5051678;28;20029;-63
2023/12/11 05:29:58;;;;;;;29.70;18.55;;;2.90;99.90;;;;;;5052326;28;20028;-63
2023/12/11 05:32:24;;;;;;;35.17;19.60;;;2.90;99.90;;;;;;5052084;28;20159;-63
2023/12/11 05:34:50;;;;;;;29.63;18.08;;;3.00;99.90;;;;;;5051928;28;20108;-63
2023/12/11 05:37:15;;;;;;;29.85;17.90;;;3.00;99.90;;;;;;5052495;28;20040;-62
2023/12/11 05:39:41;;;;;;;28.73;17.48;;;3.10;99.90;;;;;;5051837;28;20417;-63
2023/12/11 05:42:07;;;;;;;28.08;18.13;;;3.00;99.90;;;;;;5050890;28;20024;-63
2023/12/11 05:44:32;;;;;;;24.83;17.33;;;3.00;99.90;;;;;;5051748;28;20107;-65
2023/12/11 05:46:58;;;;;;;28.88;17.98;;;3.00;99.90;;;;;;5052185;28;20028;-62
2023/12/11 05:49:24;;;;;;;32.55;18.45;;;3.00;99.90;;;;;;5052010;28;20029;-63
2023/12/11 05:51:49;;;;;;;33.83;19.92;;;3.00;99.90;;;;;;5051625;28;20096;-63
2023/12/11 05:54:15;;;;;;;28.10;17.42;;;3.00;99.90;;;;;;5051978;28;20040;-62
2023/12/11 05:56:40;;;;;;;32.47;18.17;;;3.00;99.90;;;;;;5050212;28;20047;-63
2023/12/11 05:59:06;;;;;;;25.95;16.90;;;3.00;99.90;;;;;;5051643;28;20053;-62
2023/12/11 06:01:33;;;;;;;31.20;18.38;;;3.00;99.90;;;;;;5051748;28;20095;-62
2023/12/11 06:04:00;;;;;;;32.85;18.33;;;3.10;99.90;;;;;;5051583;28;20032;-63
2023/12/11 06:06:26;;;;;;;27.27;16.50;;;3.10;99.90;;;;;;5051808;28;20082;-63
2023/12/11 06:08:51;;;;;;;27.35;16.15;;;3.00;99.90;;;;;;5050001;28;20021;-63
2023/12/11 06:11:17;;;;;;;24.95;16.27;;;3.00;99.90;;;;;;5052774;28;20021;-63
2023/12/11 06:13:43;;;;;;;27.95;17.42;;;3.00;99.90;;;;;;5053341;28;20078;-63
2023/12/11 06:16:09;;;;;;;26.15;15.38;;;3.00;99.90;;;;;;5051394;28;20056;-63
2023/12/11 06:18:34;;;;;;;26.17;17.25;;;3.00;99.90;;;;;;5051512;28;20040;-67
2023/12/11 06:21:00;;;;;;;28.67;15.90;;;3.00;99.90;;;;;;5051658;28;20545;-63
2023/12/11 06:23:25;;;;;;;28.75;17.10;;;3.00;99.90;;;;;;5051409;28;20029;-63
2023/12/11 06:25:52;;;;;;;27.80;16.50;;;3.00;99.90;;;;;;5051375;28;20401;-62
2023/12/11 06:28:17;;;;;;;25.15;15.73;;;3.00;99.90;;;;;;5051642;28;20116;-63
2023/12/11 06:30:43;;;;;;;29.83;16.80;;;3.00;99.90;;;;;;5051200;28;20057;-64
2023/12/11 06:33:09;;;;;;;28.58;15.60;;;2.90;99.90;;;;;;5051494;28;20442;-64
2023/12/11 06:35:35;;;;;;;25.05;16.02;;;3.00;99.90;;;;;;5051578;28;20109;-64
2023/12/11 06:38:00;;;;;;;26.85;17.27;;;2.90;99.90;;;;;;5051104;28;20025;-63
2023/12/11 06:40:26;;;;;;;28.10;17.30;;;3.00;99.90;;;;;;5051522;28;20377;-63
2023/12/11 06:42:51;;;;;;;31.50;17.90;;;3.00;99.90;;;;;;5050425;28;20032;-62
2023/12/11 06:45:18;;;;;;;29.25;16.88;;;3.00;99.90;;;;;;5049994;28;20052;-63
2023/12/11 06:47:43;;;;;;;30.35;16.35;;;3.00;99.90;;;;;;5051038;28;20032;-63
2023/12/11 06:50:09;;;;;;;27.70;17.23;;;3.00;99.90;;;;;;5051341;28;20107;-63
2023/12/11 06:52:35;;;;;;;29.10;17.63;;;3.00;99.90;;;;;;5051467;28;20028;-63
2023/12/11 06:55:02;;;;;;;28.40;16.15;;;3.00;99.90;;;;;;5050935;28;20029;-63
2023/12/11 06:57:27;;;;;;;31.38;17.45;;;3.00;99.90;;;;;;5051324;28;20053;-63
2023/12/11 06:59:53;;;;;;;29.45;17.50;;;3.00;99.90;;;;;;5050921;28;20145;-62
2023/12/11 07:02:19;;;;;;;31.63;18.15;;;3.00;99.90;;;;;;5051846;28;20092;-62
2023/12/11 07:04:44;;;;;;;26.88;17.13;;;2.90;99.90;;;;;;5054678;28;20025;-63
2023/12/11 07:07:10;;;;;;;29.40;17.77;;;3.00;99.90;;;;;;5055099;28;20025;-63
2023/12/11 07:09:36;;;;;;;26.65;17.75;;;3.00;99.90;;;;;;5055069;28;20148;-64
2023/12/11 07:12:01;;;;;;;29.60;18.13;;;3.00;99.90;;;;;;5053503;28;20032;-63
2023/12/11 07:14:27;;;;;;;33.55;17.75;;;3.00;99.90;;;;;;5054793;28;20025;-63
2023/12/11 07:16:53;;;;;;;31.70;17.58;;;3.00;99.90;;;;;;5052933;28;20055;-63
2023/12/11 07:19:22;;;;;;;28.58;17.15;;;2.90;99.90;;;;;;5054402;28;20123;-63
2023/12/11 07:21:47;;;;;;;31.17;17.52;;;2.90;99.90;;;;;;5054102;28;20095;-63
2023/12/11 07:24:13;;;;;;;29.27;17.60;;;2.90;99.90;;;;;;5054703;28;20052;-62
2023/12/11 07:26:39;;;;;;;27.52;16.88;;;2.80;99.90;;;;;;5054415;28;20036;-63
2023/12/11 07:29:07;;;;;;;33.80;18.23;;;2.80;99.90;;;;;;5054726;28;20108;-63
2023/12/11 07:31:33;;;;;;;30.48;18.75;;;2.80;99.90;;;;;;5054558;28;20078;-63
2023/12/11 07:33:59;;;;;;;36.50;18.73;;;2.70;99.90;;;;;;5052728;28;20038;-63
2023/12/11 07:36:24;;;;;;;29.95;18.45;;;2.70;99.90;;;;;;5054804;28;20037;-62
2023/12/11 07:38:50;;;;;;;30.13;18.48;;;2.70;99.90;;;;;;5054082;28;20052;-63
2023/12/11 07:41:22;;;;;;;33.78;20.45;;;2.70;99.90;;;;;;5053976;28;20136;-64
2023/12/11 07:43:48;;;;;;;29.55;17.80;;;2.70;99.90;;;;;;5053494;28;20060;-63
2023/12/11 07:46:18;;;;;;;37.30;18.83;;;2.70;99.90;;;;;;5054316;28;20517;-63
2023/12/11 07:48:44;;;;;;;30.40;18.65;;;2.80;99.90;;;;;;5053506;28;20629;-63
2023/12/11 07:51:20;;;;;;;29.83;18.52;;;2.70;99.90;;;;;;5054188;28;20040;-63
2023/12/11 07:53:46;;;;;;;34.05;18.48;;;2.80;99.90;;;;;;5053633;28;20032;-62
2023/12/11 07:56:22;;;;;;;30.73;18.98;;;2.80;99.90;;;;;;5054009;28;20429;-64
2023/12/11 07:58:49;;;;;;;27.10;17.42;;;2.80;99.90;;;;;;5051987;28;20045;-64
2023/12/11 08:01:15;;;;;;;33.17;18.52;;;2.80;99.90;;;;;;5053854;28;20037;-62
2023/12/11 08:03:41;;;;;;;30.70;19.30;;;2.80;99.90;;;;;;5052006;28;20047;-63
2023/12/11 08:06:08;;;;;;;31.75;18.55;;;2.90;99.90;;;;;;5070909;28;20020;-63
2023/12/11 08:08:40;;;;;;;29.00;18.75;;;2.90;99.90;;;;;;5074023;28;20036;-63
2023/12/11 08:11:24;;;;;;;28.33;18.50;;;2.90;99.90;;;;;;5068355;28;20021;-63
2023/12/11 08:13:50;;;;;;;26.55;17.88;;;2.90;99.90;;;;;;5053321;28;20462;-62
2023/12/11 08:16:16;;;;;;;28.90;18.50;;;2.90;99.90;;;;;;5053976;28;20074;-66
2023/12/11 08:18:43;;;;;;;30.73;18.98;;;2.90;99.90;;;;;;5053682;28;20480;-64
2023/12/11 08:21:09;;;;;;;33.55;19.10;;;3.00;99.90;;;;;;5053679;28;20131;-63
2023/12/11 08:23:34;;;;;;;35.47;19.17;;;3.00;99.90;;;;;;5053799;28;20439;-63
2023/12/11 08:26:00;;;;;;;29.83;18.70;;;3.00;99.90;;;;;;5053073;28;20109;-64
2023/12/11 08:28:26;;;;;;;31.15;19.77;;;3.00;99.90;;;;;;5053536;28;20107;-63
2023/12/11 08:30:51;;;;;;;32.67;19.25;;;3.00;99.90;;;;;;5053349;28;20029;-63
2023/12/11 08:33:17;;;;;;;32.42;19.35;;;3.00;99.90;;;;;;5053650;28;20515;-63
2023/12/11 08:35:43;;;;;;;33.75;18.10;;;3.10;99.90;;;;;;5053463;28;20108;-66
2023/12/11 08:38:09;;;;;;;31.90;19.42;;;3.20;99.90;;;;;;5052544;28;20485;-63
2023/12/11 08:40:35;;;;;;;33.58;20.15;;;3.10;99.90;;;;;;5053016;28;20120;-63
2023/12/11 08:43:00;;;;;;;33.03;19.23;;;3.10;99.90;;;;;;5052860;28;20045;-63
2023/12/11 08:45:26;;;;;;;29.67;19.02;;;3.20;99.90;;;;;;5052656;28;20028;-63
2023/12/11 08:47:52;;;;;;;32.15;20.95;;;3.20;99.90;;;;;;5052696;28;20031;-63
2023/12/11 08:50:17;;;;;;;33.40;20.48;;;3.20;99.90;;;;;;5052873;28;20104;-63
2023/12/11 08:52:44;;;;;;;32.15;18.30;;;3.20;99.90;;;;;;5053050;28;20036;-63
2023/12/11 08:55:09;;;;;;;30.83;19.13;;;3.30;99.90;;;;;;5052397;28;20148;-63
2023/12/11 08:57:35;;;;;;;32.95;19.70;;;3.30;99.90;;;;;;5052949;28;20027;-63
2023/12/11 09:00:03;;;;;;;33.92;20.55;;;3.40;99.90;;;;;;5052043;28;20049;-63
2023/12/11 09:02:29;;;;;;;32.33;20.60;;;3.40;99.90;;;;;;5052896;28;20507;-63
2023/12/11 09:04:54;;;;;;;33.28;19.85;;;3.50;99.90;;;;;;5052371;28;20032;-63
2023/12/11 09:07:20;;;;;;;33.40;20.48;;;3.60;99.90;;;;;;5052729;28;20029;-63
2023/12/11 09:09:46;;;;;;;30.50;19.15;;;3.60;99.90;;;;;;5052508;28;20490;-63
2023/12/11 09:12:11;;;;;;;31.70;19.58;;;3.70;99.90;;;;;;5052306;28;20056;-63
2023/12/11 09:14:37;;;;;;;33.17;20.80;;;3.70;99.90;;;;;;5052578;28;20074;-62
2023/12/11 09:17:03;;;;;;;32.17;19.80;;;3.80;99.90;;;;;;5052179;28;20113;-62
2023/12/11 09:19:28;;;;;;;28.80;18.75;;;3.90;99.90;;;;;;5052326;28;20029;-63
2023/12/11 09:21:54;;;;;;;31.67;19.02;;;3.90;99.90;;;;;;5051958;28;20481;-63
2023/12/11 09:24:20;;;;;;;30.55;19.27;;;3.90;99.90;;;;;;5052745;28;20025;-63
2023/12/11 09:26:45;;;;;;;29.00;19.05;;;4.00;99.90;;;;;;5052021;28;20033;-64
2023/12/11 09:29:11;;;;;;;27.83;17.98;;;4.00;99.90;;;;;;5052039;28;20206;-62
2023/12/11 09:31:38;;;;;;;29.40;18.60;;;4.10;99.90;;;;;;5052374;28;20025;-62
2023/12/11 09:34:03;;;;;;;27.92;18.73;;;4.10;99.90;;;;;;5051966;28;20025;-62
2023/12/11 09:36:29;;;;;;;28.50;18.23;;;4.10;99.90;;;;;;5052380;28;20033;-63
2023/12/11 09:38:55;;;;;;;30.33;18.13;;;4.20;99.90;;;;;;5052313;28;20021;-63
2023/12/11 09:41:21;;;;;;;27.42;16.88;;;4.20;99.90;;;;;;5052355;28;20044;-63
2023/12/11 09:43:48;;;;;;;33.42;17.90;;;4.20;99.90;;;;;;5050862;28;20031;-63
2023/12/11 09:46:17;;;;;;;27.65;17.30;;;4.20;99.90;;;;;;5051785;28;20026;-64
2023/12/11 09:48:43;;;;;;;29.88;18.65;;;4.20;99.90;;;;;;5052169;28;20055;-63
2023/12/11 09:51:09;;;;;;;29.58;18.17;;;4.30;99.90;;;;;;5051688;28;20029;-63
2023/12/11 09:53:36;;;;;;;26.63;17.85;;;4.30;99.90;;;;;;5052363;28;20099;-63
2023/12/11 09:56:03;;;;;;;30.27;19.02;;;4.30;99.90;;;;;;5051787;28;20106;-63
2023/12/11 09:58:28;;;;;;;26.70;17.20;;;4.30;99.90;;;;;;5052065;28;20040;-63
2023/12/11 10:01:00;;;;;;;28.15;17.08;;;4.30;99.90;;;;;;5054003;28;20560;-63
2023/12/11 10:03:27;;;;;;;26.38;16.45;;;4.40;99.90;;;;;;5055579;28;20104;-63
2023/12/11 10:05:58;;;;;;;26.25;16.60;;;4.40;99.90;;;;;;5051707;28;20056;-63
2023/12/11 10:08:24;;;;;;;28.40;17.33;;;4.40;99.90;;;;;;5052297;28;20071;-62
2023/12/11 10:10:49;;;;;;;25.98;17.55;;;4.50;99.90;;;;;;5051856;28;20033;-63
2023/12/11 10:13:25;;;;;;;28.63;16.48;;;4.50;99.90;;;;;;5050381;28;20373;-63
2023/12/11 10:15:51;;;;;;;24.23;16.15;;;4.60;99.90;;;;;;5051715;28;20481;-63
2023/12/11 10:18:16;;;;;;;28.65;16.50;;;4.60;99.90;;;;;;5051553;28;20025;-63
2023/12/11 10:20:42;;;;;;;28.13;15.98;;;4.60;99.90;;;;;;5051895;28;20037;-63
2023/12/11 10:23:20;;;;;;;29.98;17.10;;;4.60;99.90;;;;;;5051288;28;20029;-63
2023/12/11 10:25:48;;;;;;;27.52;16.80;;;4.60;99.90;;;;;;5051788;28;20043;-63
2023/12/11 10:28:16;;;;;;;29.70;18.17;;;4.70;99.90;;;;;;5051324;28;20040;-63
2023/12/11 10:30:55;;;;;;;25.77;16.27;;;4.70;99.90;;;;;;5051820;28;20119;-63
2023/12/11 10:33:22;;;;;;;25.30;16.70;;;4.70;99.90;;;;;;5051439;28;20466;-64
2023/12/11 10:35:48;;;;;;;27.00;16.23;;;4.70;99.90;;;;;;5051153;28;20434;-63
2023/12/11 10:38:22;;;;;;;27.25;15.23;;;4.70;99.90;;;;;;5055340;28;20029;-65
2023/12/11 10:40:49;;;;;;;24.52;16.27;;;4.80;99.90;;;;;;5055749;28;20140;-63
2023/12/11 10:43:15;;;;;;;23.73;16.40;;;4.80;99.90;;;;;;5055206;28;20044;-63
2023/12/11 10:45:41;;;;;;;26.70;15.20;;;4.80;99.90;;;;;;5055294;28;20033;-62
2023/12/11 10:48:07;;;;;;;26.27;17.00;;;4.90;99.90;;;;;;5054860;28;20454;-63
2023/12/11 10:50:33;;;;;;;27.20;16.58;;;4.90;99.90;;;;;;5055449;28;20131;-64
2023/12/11 10:53:09;;;;;;;27.00;16.08;;;4.90;99.90;;;;;;5055012;28;20040;-64
2023/12/11 10:55:37;;;;;;;27.30;17.33;;;4.90;99.90;;;;;;5055235;28;20480;-63
2023/12/11 10:58:05;;;;;;;22.30;15.90;;;4.90;99.90;;;;;;5054347;28;20428;-64
2023/12/11 11:00:32;;;;;;;27.02;16.15;;;4.90;99.90;;;;;;5055005;28;20476;-63
2023/12/11 11:02:59;;;;;;;27.98;15.68;;;5.00;99.90;;;;;;5054888;28;20075;-64
2023/12/11 11:05:28;;;;;;;26.38;15.95;;;5.00;99.90;;;;;;5054851;28;20396;-63
2023/12/11 11:08:12;;;;;;;31.02;15.88;;;5.00;99.90;;;;;;5055313;28;20091;-63
2023/12/11 11:11:09;;;;;;;26.92;15.90;;;5.10;99.90;;;;;;5055115;28;20032;-63
2023/12/11 11:14:00;;;;;;;26.50;15.98;;;5.20;99.90;;;;;;5054816;28;20118;-63
2023/12/11 11:16:55;;;;;;;24.80;15.73;;;5.20;99.90;;;;;;5054620;28;20331;-63
2023/12/11 11:19:20;;;;;;;25.25;16.45;;;5.30;99.90;;;;;;5054289;28;20504;-63
2023/12/11 11:22:04;;;;;;;26.67;15.68;;;5.30;99.90;;;;;;5054515;28;20033;-63
2023/12/11 11:24:30;;;;;;;28.42;16.42;;;5.30;99.90;;;;;;5054967;28;20021;-63
2023/12/11 11:26:57;;;;;;;23.45;14.65;;;5.40;99.90;;;;;;5054732;28;20033;-63
2023/12/11 11:29:42;;;;;;;21.15;15.27;;;5.40;99.90;;;;;;5054478;28;20025;-64
2023/12/11 11:32:08;;;;;;;23.45;15.07;;;5.50;99.90;;;;;;5054473;28;20056;-64
2023/12/11 11:34:40;;;;;;;26.73;16.13;;;5.60;99.90;;;;;;5054828;28;20111;-64
2023/12/11 11:37:20;;;;;;;23.27;15.32;;;5.80;99.90;;;;;;5054422;28;20029;-63
2023/12/11 11:39:58;;;;;;;25.00;15.25;;;5.90;99.90;;;;;;5054450;28;20041;-63
2023/12/11 11:42:32;;;;;;;23.65;15.73;;;6.00;99.90;;;;;;5054202;28;20044;-63
2023/12/11 11:45:00;;;;;;;22.58;15.23;;;6.10;99.90;;;;;;5054181;28;20025;-64
2023/12/11 11:47:26;;;;;;;24.08;16.80;;;6.20;99.90;;;;;;5054179;28;20064;-63
2023/12/11 11:49:53;;;;;;;26.70;15.48;;;6.30;99.90;;;;;;5053546;28;20564;-63
2023/12/11 11:52:28;;;;;;;23.27;16.00;;;6.50;99.90;;;;;;5053580;28;20029;-63
2023/12/11 11:55:06;;;;;;;24.25;15.15;;;6.60;99.90;;;;;;5053798;28;20033;-62
2023/12/11 11:57:33;;;;;;;19.35;14.35;;;6.70;99.90;;;;;;5060496;28;20028;-63
2023/12/11 11:59:59;;;;;;;22.85;15.43;;;6.70;99.90;;;;;;5074013;28;20487;-63
2023/12/11 12:02:26;;;;;;;21.25;15.48;;;6.80;99.90;;;;;;5074294;28;20039;-63
2023/12/11 12:04:52;;;;;;;25.83;15.02;;;6.70;99.90;;;;;;5074043;28;20027;-63
2023/12/11 12:07:18;;;;;;;21.80;14.90;;;6.80;99.90;;;;;;5073539;28;20028;-63
2023/12/11 12:09:49;;;;;;;28.08;14.60;;;6.70;99.90;;;;;;5073962;28;20033;-62
2023/12/11 12:12:15;;;;;;;22.38;14.50;;;6.70;99.90;;;;;;5073568;28;20368;-62
2023/12/11 12:14:41;;;;;;;24.48;15.70;;;6.70;99.90;;;;;;5073666;28;20017;-63
2023/12/11 12:17:10;;;;;;;23.23;15.45;;;6.70;99.90;;;;;;5073187;28;20036;-62
2023/12/11 12:19:36;;;;;;;23.25;14.98;;;6.60;99.90;;;;;;5073608;28;20025;-62
2023/12/11 12:22:02;;;;;;;24.85;14.68;;;6.60;99.90;;;;;;5073217;28;20029;-64
2023/12/11 12:24:29;;;;;;;24.92;15.38;;;6.50;99.90;;;;;;5073691;28;20025;-63
2023/12/11 12:27:06;;;;;;;28.13;16.00;;;6.50;99.90;;;;;;5069060;28;20028;-62
2023/12/11 12:29:33;;;;;;;24.02;15.18;;;6.50;99.90;;;;;;5033357;28;20037;-62
2023/12/11 12:31:59;;;;;;;27.63;15.25;;;6.50;99.90;;;;;;5033328;28;20048;-62
2023/12/11 12:34:27;;;;;;;24.95;15.98;;;6.40;99.90;;;;;;5033216;28;20037;-63